createdAt,value
2022-11-25T00:01:17.249Z,98693.34
2022-11-25T00:03:44.603Z,98692.38
2022-11-25T00:06:17.682Z,98689.88
2022-11-25T00:08:45.183Z,98693.94
2022-11-25T00:11:12.569Z,98695.81
2022-11-25T00:13:39.476Z,98699.56
2022-11-25T00:16:10.993Z,98696.69
2022-11-25T00:18:38.083Z,98701.09
2022-11-25T00:21:06.712Z,98694.88
2022-11-25T00:23:33.635Z,98697.56
2022-11-25T00:26:15.354Z,98695.66
2022-11-25T00:28:44.065Z,98692.13
2022-11-25T00:31:22.062Z,98692.13
2022-11-25T00:33:49.368Z,98700.22
2022-11-25T00:36:24.127Z,98695.81
2022-11-25T00:38:55.077Z,98699.19
2022-11-25T00:41:40.802Z,98700.31
2022-11-25T00:44:28.444Z,98702.81
2022-11-25T00:46:55.592Z,98698.41
2022-11-25T00:49:22.403Z,98706.34
2022-11-25T00:51:49.451Z,98707.22
2022-11-25T00:54:16.282Z,98711.59
2022-11-25T00:56:43.305Z,98711.59
2022-11-25T00:59:10.023Z,98719.63
2022-11-25T01:01:37.265Z,98711.69
2022-11-25T01:04:04.335Z,98716.88
2022-11-25T01:06:31.343Z,98713.34
2022-11-25T01:08:58.088Z,98708.94
2022-11-25T01:11:25.167Z,98711.50
2022-11-25T01:14:00.640Z,98710.66
2022-11-25T01:16:28.828Z,98715.03
2022-11-25T01:18:55.670Z,98713.44
2022-11-25T01:21:27.743Z,98710.66
2022-11-25T01:23:54.487Z,98714.03
2022-11-25T01:26:23.066Z,98713.25
2022-11-25T01:28:52.978Z,98713.44
2022-11-25T01:31:20.906Z,98712.19
2022-11-25T01:33:48.548Z,98710.59
2022-11-25T01:36:16.614Z,98709.69
2022-11-25T01:38:43.488Z,98713.16
2022-11-25T01:41:13.188Z,98713.25
2022-11-25T01:43:40.093Z,98712.19
2022-11-25T01:46:28.147Z,98718.50
2022-11-25T01:49:00.295Z,98726.53
2022-11-25T01:51:30.161Z,98718.50
2022-11-25T01:53:58.263Z,98723.94
2022-11-25T01:56:26.493Z,98715.03
2022-11-25T01:58:53.269Z,98718.59
2022-11-25T02:01:21.837Z,98712.38
2022-11-25T02:03:49.444Z,98714.19
2022-11-25T02:06:23.221Z,98720.31
2022-11-25T02:08:52.138Z,98720.13
2022-11-25T02:11:18.901Z,98722.91
2022-11-25T02:13:46.476Z,98721.09
2022-11-25T02:16:13.319Z,98717.53
2022-11-25T02:18:40.432Z,98716.59
2022-11-25T02:21:07.484Z,98709.34
2022-11-25T02:23:48.689Z,98718.31
2022-11-25T02:26:15.455Z,98721.78
2022-11-25T02:28:42.557Z,98724.63
2022-11-25T02:31:09.321Z,98730.75
2022-11-25T02:33:36.408Z,98723.78
2022-11-25T02:36:07.170Z,98719.28
2022-11-25T02:38:49.596Z,98722.91
2022-11-25T02:41:21.190Z,98734.34
2022-11-25T02:43:48.229Z,98734.28
2022-11-25T02:46:21.801Z,98732.66
2022-11-25T02:51:35.829Z,98722.72
2022-11-25T02:54:02.892Z,98728.16
2022-11-25T02:56:31.661Z,98734.47
2022-11-25T02:58:58.872Z,98735.06
2022-11-25T03:01:25.679Z,98733.41
2022-11-25T03:03:52.784Z,98735.06
2022-11-25T03:06:19.527Z,98739.63
2022-11-25T03:08:46.628Z,98742.38
2022-11-25T03:11:13.321Z,98739.53
2022-11-25T03:13:40.568Z,98743.94
2022-11-25T03:16:07.968Z,98740.34
2022-11-25T03:18:35.371Z,98742.88
2022-11-25T03:21:02.269Z,98746.63
2022-11-25T03:23:29.376Z,98745.78
2022-11-25T03:25:56.092Z,98749.22
2022-11-25T03:28:23.355Z,98746.63
2022-11-25T03:30:50.136Z,98741.34
2022-11-25T03:33:17.159Z,98742.22
2022-11-25T03:35:43.843Z,98740.41
2022-11-25T03:38:10.908Z,98744.81
2022-11-25T03:40:37.691Z,98742.22
2022-11-25T03:43:04.722Z,98745.56
2022-11-25T03:45:31.499Z,98749.28
2022-11-25T03:47:58.583Z,98741.28
2022-11-25T03:50:25.324Z,98735.94
2022-11-25T03:52:52.399Z,98743.94
2022-11-25T03:55:19.139Z,98737.75
2022-11-25T03:57:46.220Z,98744.03
2022-11-25T04:00:13.285Z,98742.13
2022-11-25T04:02:40.377Z,98742.88
2022-11-25T04:05:07.520Z,98750.22
2022-11-25T04:07:34.601Z,98748.38
2022-11-25T04:10:01.387Z,98750.91
2022-11-25T04:12:46.747Z,98750.91
2022-11-25T04:15:14.671Z,98754.66
2022-11-25T04:17:41.984Z,98758.19
2022-11-25T04:20:09.603Z,98751.88
2022-11-25T04:22:36.807Z,98750.81
2022-11-25T04:25:04.083Z,98762.50
2022-11-25T04:27:31.227Z,98763.53
2022-11-25T04:29:57.944Z,98764.28
2022-11-25T04:32:24.947Z,98766.97
2022-11-25T04:34:52.074Z,98767.09
2022-11-25T04:37:19.156Z,98770.63
2022-11-25T04:39:45.902Z,98769.66
2022-11-25T04:42:31.715Z,98772.22
2022-11-25T04:45:21.298Z,98769.66
2022-11-25T04:47:46.392Z,98770.53
2022-11-25T04:50:18.845Z,98773.28
2022-11-25T04:52:45.931Z,98778.56
2022-11-25T04:55:12.778Z,98772.22
2022-11-25T04:57:39.890Z,98782.94
2022-11-25T05:00:07.224Z,98783.03
2022-11-25T05:02:34.310Z,98779.50
2022-11-25T05:05:01.171Z,98790.09
2022-11-25T05:07:28.636Z,98793.63
2022-11-25T05:09:55.468Z,98791.75
2022-11-25T05:12:24.723Z,98793.56
2022-11-25T05:14:51.448Z,98799.97
2022-11-25T05:17:26.530Z,98801.66
2022-11-25T05:19:53.254Z,98807.81
2022-11-25T05:22:22.757Z,98802.53
2022-11-25T05:24:49.492Z,98800.56
2022-11-25T05:27:16.721Z,98807.81
2022-11-25T05:29:43.765Z,98801.56
2022-11-25T05:32:11.021Z,98804.25
2022-11-25T05:34:38.168Z,98804.16
2022-11-25T05:37:05.524Z,98809.59
2022-11-25T05:39:32.261Z,98806.06
2022-11-25T05:41:59.345Z,98806.94
2022-11-25T05:44:26.104Z,98824.72
2022-11-25T05:46:53.262Z,98810.41
2022-11-25T05:49:20.936Z,98815.91
2022-11-25T05:51:48.006Z,98817.63
2022-11-25T05:54:14.775Z,98816.69
2022-11-25T05:56:41.935Z,98821.19
2022-11-25T05:59:08.683Z,98825.31
2022-11-25T06:01:35.723Z,98836.09
2022-11-25T06:04:03.219Z,98830.75
2022-11-25T06:06:30.675Z,98833.50
2022-11-25T06:08:57.423Z,98833.44
2022-11-25T06:11:25.643Z,98829.97
2022-11-25T06:13:52.412Z,98828.25
2022-11-25T06:16:21.448Z,98829.81
2022-11-25T06:18:48.516Z,98837.75
2022-11-25T06:21:15.717Z,98838.69
2022-11-25T06:23:44.742Z,98841.38
2022-11-25T06:26:17.675Z,98837.94
2022-11-25T06:28:44.567Z,98845.78
2022-11-25T06:31:13.782Z,98843.03
2022-11-25T06:33:40.666Z,98845.69
2022-11-25T06:36:09.063Z,98843.88
2022-11-25T06:38:35.794Z,98856.28
2022-11-25T06:41:03.770Z,98849.22
2022-11-25T06:43:30.650Z,98847.50
2022-11-25T06:46:08.227Z,98849.91
2022-11-25T06:48:35.505Z,98846.47
2022-11-25T06:51:04.938Z,98847.41
2022-11-25T06:53:32.021Z,98842.06
2022-11-25T06:56:06.539Z,98846.28
2022-11-25T06:58:36.170Z,98857.09
2022-11-25T07:01:07.670Z,98855.44
2022-11-25T07:03:35.729Z,98863.38
2022-11-25T07:06:02.853Z,98868.81
2022-11-25T07:08:33.911Z,98862.53
2022-11-25T07:11:28.155Z,98872.25
2022-11-25T07:13:56.373Z,98873.22
2022-11-25T07:16:23.438Z,98865.13
2022-11-25T07:18:50.246Z,98876.59
2022-11-25T07:21:18.905Z,98874.00
2022-11-25T07:23:45.962Z,98879.25
2022-11-25T07:26:13.492Z,98880.19
2022-11-25T07:28:40.338Z,98879.94
2022-11-25T07:31:32.240Z,98884.44
2022-11-25T07:34:02.035Z,98887.22
2022-11-25T07:36:29.332Z,98888.81
2022-11-25T07:38:57.874Z,98887.97
2022-11-25T07:41:25.919Z,98891.34
2022-11-25T07:43:59.957Z,98890.22
2022-11-25T07:46:34.632Z,98888.41
2022-11-25T07:49:06.386Z,98891.25
2022-11-25T07:51:56.723Z,98892.00
2022-11-25T07:54:23.787Z,98888.66
2022-11-25T07:56:51.170Z,98892.81
2022-11-25T07:59:20.302Z,98892.97
2022-11-25T08:01:49.555Z,98888.22
2022-11-25T08:04:20.061Z,98892.69
2022-11-25T08:06:48.843Z,98891.94
2022-11-25T08:09:19.491Z,98894.44
2022-11-25T08:11:47.082Z,98900.56
2022-11-25T08:14:14.117Z,98896.00
2022-11-25T08:16:41.207Z,98897.88
2022-11-25T08:19:09.888Z,98896.84
2022-11-25T08:21:37.250Z,98907.66
2022-11-25T08:24:04.177Z,98896.59
2022-11-25T08:26:33.992Z,98904.53
2022-11-25T08:29:00.921Z,98908.84
2022-11-25T08:31:37.971Z,98918.00
2022-11-25T08:34:05.893Z,98912.28
2022-11-25T08:36:33.461Z,98920.16
2022-11-25T08:39:01.072Z,98912.88
2022-11-25T08:41:30.116Z,98911.31
2022-11-25T08:43:57.617Z,98914.44
2022-11-25T08:46:26.553Z,98916.31
2022-11-25T08:48:53.638Z,98922.72
2022-11-25T08:51:29.289Z,98929.88
2022-11-25T08:53:55.923Z,98925.34
2022-11-25T08:56:26.169Z,98923.25
2022-11-25T08:58:54.133Z,98928.53
2022-11-25T09:01:21.778Z,98927.72
2022-11-25T09:03:49.919Z,98925.34
2022-11-25T09:06:17.122Z,98935.56
2022-11-25T09:08:44.656Z,98937.28
2022-11-25T09:11:25.915Z,98939.19
2022-11-25T09:13:52.967Z,98951.25
2022-11-25T09:16:20.931Z,98941.78
2022-11-25T09:18:52.360Z,98940.53
2022-11-25T09:21:22.756Z,98937.69
2022-11-25T09:23:50.692Z,98931.22
2022-11-25T09:26:25.487Z,98931.47
2022-11-25T09:28:52.516Z,98932.41
2022-11-25T09:31:19.824Z,98935.69
2022-11-25T09:33:46.726Z,98939.13
2022-11-25T09:36:14.579Z,98933.59
2022-11-25T09:38:44.145Z,98927.38
2022-11-25T09:42:07.668Z,98928.81
2022-11-25T09:45:30.701Z,98932.97
2022-11-25T09:48:25.396Z,98943.19
2022-11-25T09:51:27.669Z,98939.38
2022-11-25T09:54:01.906Z,98939.88
2022-11-25T09:56:35.653Z,98940.63
2022-11-25T09:59:20.960Z,98948.69
2022-11-25T10:01:54.479Z,98946.59
2022-11-25T10:04:32.277Z,98942.97
2022-11-25T10:07:01.312Z,98936.53
2022-11-25T10:09:30.443Z,98933.09
2022-11-25T10:12:01.042Z,98935.84
2022-11-25T10:14:32.775Z,98937.00
2022-11-25T10:17:05.651Z,98939.28
2022-11-25T10:19:51.518Z,98932.31
2022-11-25T10:22:30.991Z,98932.88
2022-11-25T10:25:02.614Z,98932.03
2022-11-25T10:27:41.429Z,98940.94
2022-11-25T10:30:19.113Z,98936.44
2022-11-25T10:33:03.981Z,98937.13
2022-11-25T10:35:47.282Z,98936.75
2022-11-25T10:38:19.396Z,98944.00
2022-11-25T10:40:48.599Z,98941.22
2022-11-25T10:43:15.370Z,98942.78
2022-11-25T10:45:49.354Z,98937.09
2022-11-25T10:48:25.515Z,98939.69
2022-11-25T10:51:01.792Z,98940.75
2022-11-25T10:53:30.811Z,98931.25
2022-11-25T10:55:57.860Z,98935.38
2022-11-25T10:58:35.398Z,98929.81
2022-11-25T11:01:09.583Z,98942.19
2022-11-25T11:03:36.414Z,98935.63
2022-11-25T11:06:03.531Z,98930.28
2022-11-25T11:08:40.157Z,98934.88
2022-11-25T11:11:11.302Z,98931.91
2022-11-25T11:13:38.125Z,98927.59
2022-11-25T11:16:20.586Z,98926.25
2022-11-25T11:18:47.378Z,98923.34
2022-11-25T11:21:34.547Z,98930.25
2022-11-25T11:24:01.909Z,98924.69
2022-11-25T11:26:30.323Z,98929.00
2022-11-25T11:29:00.533Z,98934.16
2022-11-25T11:31:36.428Z,98933.97
2022-11-25T11:34:29.694Z,98932.88
2022-11-25T11:37:02.672Z,98934.34
2022-11-25T11:39:47.466Z,98950.25
2022-11-25T11:42:46.360Z,98941.03
2022-11-25T11:45:25.117Z,98942.44
2022-11-25T11:48:01.310Z,98943.06
2022-11-25T11:50:45.691Z,98941.03
2022-11-25T11:53:30.893Z,98943.50
2022-11-25T11:56:34.080Z,98941.56
2022-11-25T11:59:04.578Z,98942.13
2022-11-25T12:01:50.178Z,98940.94
2022-11-25T12:04:20.426Z,98937.31
2022-11-25T12:06:56.783Z,98944.09
2022-11-25T12:09:23.911Z,98941.28
2022-11-25T12:11:53.666Z,98945.50
2022-11-25T12:14:43.227Z,98941.94
2022-11-25T12:17:23.218Z,98934.53
2022-11-25T12:20:07.748Z,98937.78
2022-11-25T12:22:36.962Z,98949.19
2022-11-25T12:25:19.566Z,98943.72
2022-11-25T12:27:46.278Z,98943.50
2022-11-25T12:30:16.262Z,98941.69
2022-11-25T12:33:12.813Z,98937.91
2022-11-25T12:35:50.398Z,98942.34
2022-11-25T12:38:26.197Z,98936.84
2022-11-25T12:41:11.649Z,98931.38
2022-11-25T12:43:51.283Z,98940.94
2022-11-25T12:46:44.502Z,98946.22
2022-11-25T12:49:28.430Z,98946.97
2022-11-25T12:52:33.260Z,98943.31
2022-11-25T12:55:11.475Z,98944.06
2022-11-25T12:57:56.976Z,98939.53
2022-11-25T13:00:42.422Z,98943.13
2022-11-25T13:03:47.151Z,98937.63
2022-11-25T13:06:53.957Z,98945.50
2022-11-25T13:09:48.474Z,98948.03
2022-11-25T13:12:37.316Z,98943.56
2022-11-25T13:15:05.140Z,98938.16
2022-11-25T13:17:33.231Z,98941.72
2022-11-25T13:20:25.433Z,98948.63
2022-11-25T13:23:18.022Z,98950.53
2022-11-25T13:25:46.558Z,98942.34
2022-11-25T13:28:36.528Z,98948.47
2022-11-25T13:31:13.482Z,98947.63
2022-11-25T13:33:43.445Z,98953.75
2022-11-25T13:36:16.437Z,98947.63
2022-11-25T13:38:49.429Z,98952.91
2022-11-25T13:41:16.487Z,98951.97
2022-11-25T13:43:52.560Z,98953.66
2022-11-25T13:46:32.337Z,98951.06
2022-11-25T13:48:59.132Z,98956.34
2022-11-25T13:51:27.004Z,98953.75
2022-11-25T13:53:58.524Z,98960.13
2022-11-25T13:56:30.399Z,98959.13
2022-11-25T13:59:13.801Z,98954.66
2022-11-25T14:01:42.055Z,98958.28
2022-11-25T14:04:09.262Z,98952.91
2022-11-25T14:06:59.268Z,98953.88
2022-11-25T14:09:50.080Z,98945.78
2022-11-25T14:12:41.911Z,98953.00
2022-11-25T14:15:29.725Z,98950.22
2022-11-25T14:18:43.012Z,98951.97
2022-11-25T14:21:40.273Z,98951.06
2022-11-25T14:24:23.145Z,98954.97
2022-11-25T14:26:53.020Z,98957.53
2022-11-25T14:29:32.367Z,98961.28
2022-11-25T14:32:05.587Z,98955.91
2022-11-25T14:34:35.493Z,98959.47
2022-11-25T14:37:10.785Z,98957.66
2022-11-25T14:39:42.807Z,98961.41
2022-11-25T14:42:10.753Z,98962.28
2022-11-25T14:44:42.444Z,98961.50
2022-11-25T14:47:09.253Z,98959.78
2022-11-25T14:49:55.711Z,98962.59
2022-11-25T14:52:35.510Z,98960.84
2022-11-25T14:55:03.761Z,98960.00
2022-11-25T14:57:33.603Z,98965.47
2022-11-25T15:00:17.876Z,98964.63
2022-11-25T15:02:57.110Z,98965.47
2022-11-25T15:05:34.942Z,98961.06
2022-11-25T15:08:04.611Z,98966.44
2022-11-25T15:10:37.173Z,98966.56
2022-11-25T15:13:11.900Z,98981.81
2022-11-25T15:15:38.959Z,98981.91
2022-11-25T15:18:10.315Z,98977.72
2022-11-25T15:20:37.526Z,98976.97
2022-11-25T15:23:04.489Z,98985.06
2022-11-25T15:25:31.592Z,98985.25
2022-11-25T15:27:58.692Z,98991.59
2022-11-25T15:30:27.595Z,98990.72
2022-11-25T15:32:54.332Z,98994.47
2022-11-25T15:35:23.639Z,98994.38
2022-11-25T15:37:50.511Z,98995.81
2022-11-25T15:40:44.347Z,98999.44
2022-11-25T15:43:24.748Z,98998.91
2022-11-25T15:45:54.133Z,98999.19
2022-11-25T15:48:31.907Z,98993.47
2022-11-25T15:51:06.142Z,98999.72
2022-11-25T15:53:37.066Z,98996.94
2022-11-25T15:56:05.924Z,98991.75
2022-11-25T15:58:32.831Z,98991.31
2022-11-25T16:01:01.869Z,99000.03
2022-11-25T16:03:31.459Z,99000.88
2022-11-25T16:05:58.944Z,98999.47
2022-11-25T16:08:28.155Z,98994.00
2022-11-25T16:11:00.452Z,99000.03
2022-11-25T16:13:28.979Z,99000.69
2022-11-25T16:16:03.252Z,99001.72
2022-11-25T16:18:50.368Z,99004.41
2022-11-25T16:21:45.036Z,99005.25
2022-11-25T16:24:24.031Z,99009.00
2022-11-25T16:26:53.631Z,99005.16
2022-11-25T16:29:38.940Z,99009.00
2022-11-25T16:32:17.223Z,99019.44
2022-11-25T16:34:44.544Z,99009.22
2022-11-25T16:37:11.575Z,99016.00
2022-11-25T16:39:39.415Z,99018.22
2022-11-25T16:42:07.007Z,99012.00
2022-11-25T16:44:34.535Z,99020.25
2022-11-25T16:47:02.062Z,99014.78
2022-11-25T16:49:30.079Z,99021.19
2022-11-25T16:51:57.191Z,99023.78
2022-11-25T16:54:23.957Z,99030.44
2022-11-25T16:56:53.445Z,99024.78
2022-11-25T16:59:34.258Z,99024.22
2022-11-25T17:02:01.728Z,99018.41
2022-11-25T17:04:28.685Z,99023.69
2022-11-25T17:07:30.578Z,99028.13
2022-11-25T17:09:44.207Z,99033.78
2022-11-25T17:12:15.211Z,99023.97
2022-11-25T17:14:42.641Z,99028.50
2022-11-25T17:17:10.541Z,99032.38
2022-11-25T17:19:37.765Z,99032.63
2022-11-25T17:22:15.122Z,99026.41
2022-11-25T17:24:41.972Z,99026.50
2022-11-25T17:27:10.282Z,99031.59
2022-11-25T17:29:39.511Z,99029.03
2022-11-25T17:32:07.165Z,99032.63
2022-11-25T17:34:38.103Z,99039.03
2022-11-25T17:37:17.239Z,99030.03
2022-11-25T17:39:44.437Z,99041.56
2022-11-25T17:42:15.933Z,99038.94
2022-11-25T17:44:42.880Z,99045.22
2022-11-25T17:47:12.166Z,99053.47
2022-11-25T17:49:38.947Z,99054.69
2022-11-25T17:52:06.523Z,99056.53
2022-11-25T17:54:33.331Z,99057.09
2022-11-25T17:57:00.407Z,99067.00
2022-11-25T17:59:31.121Z,99066.41
2022-11-25T18:02:01.182Z,99071.78
2022-11-25T18:04:31.052Z,99077.06
2022-11-25T18:06:58.129Z,99074.38
2022-11-25T18:09:24.888Z,99078.31
2022-11-25T18:11:56.989Z,99078.97
2022-11-25T18:14:28.496Z,99074.66
2022-11-25T18:16:55.988Z,99078.31
2022-11-25T18:19:22.870Z,99081.00
2022-11-25T18:21:50.006Z,99089.84
2022-11-25T18:24:16.803Z,99087.34
2022-11-25T18:26:47.269Z,99097.91
2022-11-25T18:29:23.134Z,99098.09
2022-11-25T18:31:51.146Z,99096.34
2022-11-25T18:34:18.034Z,99103.47
2022-11-25T18:36:45.212Z,99104.50
2022-11-25T18:39:12.166Z,99107.19
2022-11-25T18:41:39.495Z,99100.00
2022-11-25T18:44:07.182Z,99096.72
2022-11-25T18:46:37.315Z,99101.16
2022-11-25T18:49:12.526Z,99103.16
2022-11-25T18:51:40.506Z,99095.88
2022-11-25T18:54:08.114Z,99098.75
2022-11-25T18:56:35.755Z,99098.94
2022-11-25T18:59:02.513Z,99095.38
2022-11-25T19:01:29.806Z,99100.56
2022-11-25T19:03:56.762Z,99106.88
2022-11-25T19:06:23.779Z,99100.84
2022-11-25T19:08:53.273Z,99104.50
2022-11-25T19:11:28.824Z,99102.09
2022-11-25T19:14:02.217Z,99102.88
2022-11-25T19:16:29.363Z,99100.94
2022-11-25T19:18:56.241Z,99110.06
2022-11-25T19:21:23.353Z,99111.88
2022-11-25T19:23:50.154Z,99116.38
2022-11-25T19:26:23.522Z,99110.16
2022-11-25T19:28:51.638Z,99116.56
2022-11-25T19:31:18.760Z,99111.09
2022-11-25T19:33:46.843Z,99114.94
2022-11-25T19:36:26.896Z,99118.50
2022-11-25T19:38:54.050Z,99126.53
2022-11-25T19:41:21.196Z,99122.91
2022-11-25T19:43:48.009Z,99123.78
2022-11-25T19:46:29.664Z,99121.28
2022-11-25T19:48:58.932Z,99130.09
2022-11-25T19:51:26.248Z,99126.63
2022-11-25T19:53:53.063Z,99119.66
2022-11-25T19:56:23.704Z,99118.69
2022-11-25T19:58:50.970Z,99121.53
2022-11-25T20:01:20.821Z,99130.31
2022-11-25T20:03:48.156Z,99141.13
2022-11-25T20:06:16.750Z,99138.53
2022-11-25T20:08:43.615Z,99130.19
2022-11-25T20:11:14.794Z,99136.63
2022-11-25T20:13:41.844Z,99147.25
2022-11-25T20:16:22.890Z,99135.53
2022-11-25T20:18:50.900Z,99136.53
2022-11-25T20:21:26.231Z,99141.97
2022-11-25T20:23:53.008Z,99141.22
2022-11-25T20:26:31.761Z,99144.09
2022-11-25T20:28:58.505Z,99145.91
2022-11-25T20:31:30.153Z,99149.94
2022-11-25T20:33:57.529Z,99148.59
2022-11-25T20:36:28.342Z,99150.31
2022-11-25T20:38:56.073Z,99153.00
2022-11-25T20:41:27.750Z,99156.44
2022-11-25T20:43:54.995Z,99154.75
2022-11-25T20:46:23.975Z,99159.13
2022-11-25T20:48:54.612Z,99170.94
2022-11-25T20:51:22.524Z,99161.22
2022-11-25T20:53:53.863Z,99166.81
2022-11-25T20:56:22.045Z,99165.06
2022-11-25T20:58:48.813Z,99167.06
2022-11-25T21:01:16.963Z,99171.69
2022-11-25T21:03:44.424Z,99172.53
2022-11-25T21:06:21.608Z,99173.56
2022-11-25T21:08:50.287Z,99177.13
2022-11-25T21:11:17.428Z,99178.09
2022-11-25T21:13:44.343Z,99182.50
2022-11-25T21:16:11.550Z,99181.78
2022-11-25T21:18:38.624Z,99177.09
2022-11-25T21:21:06.291Z,99180.34
2022-11-25T21:23:36.478Z,99177.84
2022-11-25T21:26:10.262Z,99175.34
2022-11-25T21:28:40.607Z,99179.84
2022-11-25T21:31:11.324Z,99187.13
2022-11-25T21:33:38.183Z,99196.81
2022-11-25T21:36:05.567Z,99190.84
2022-11-25T21:38:32.327Z,99191.22
2022-11-25T21:40:59.440Z,99196.75
2022-11-25T21:43:31.872Z,99201.28
2022-11-25T21:46:04.787Z,99196.09
2022-11-25T21:48:31.653Z,99202.13
2022-11-25T21:50:58.918Z,99203.16
2022-11-25T21:53:25.744Z,99199.28
2022-11-25T21:55:52.828Z,99198.84
2022-11-25T21:58:20.362Z,99207.00
2022-11-25T22:00:49.917Z,99209.59
2022-11-25T22:03:17.458Z,99205.00
2022-11-25T22:05:46.053Z,99204.22
2022-11-25T22:08:12.807Z,99210.47
2022-11-25T22:10:40.955Z,99218.59
2022-11-25T22:13:09.127Z,99224.31
2022-11-25T22:15:36.396Z,99228.44
2022-11-25T22:18:03.165Z,99225.06
2022-11-25T22:20:33.474Z,99228.72
2022-11-25T22:23:00.845Z,99230.78
2022-11-25T22:25:29.082Z,99237.19
2022-11-25T22:27:55.844Z,99231.91
2022-11-25T22:30:23.053Z,99231.31
2022-11-25T22:32:56.407Z,99237.34
2022-11-25T22:35:23.723Z,99239.44
2022-11-25T22:37:54.949Z,99246.78
2022-11-25T22:40:22.612Z,99249.28
2022-11-25T22:42:50.246Z,99254.66
2022-11-25T22:45:44.250Z,99255.84
2022-11-25T22:48:15.169Z,99253.44
2022-11-25T22:50:42.222Z,99253.44
2022-11-25T22:53:13.301Z,99260.88
2022-11-25T22:55:40.467Z,99262.75
2022-11-25T22:58:07.262Z,99260.16
2022-11-25T23:00:37.336Z,99266.47
2022-11-25T23:03:08.063Z,99262.13
2022-11-25T23:05:36.112Z,99271.91
2022-11-25T23:08:38.895Z,99275.78
2022-11-25T23:11:06.275Z,99277.75
2022-11-25T23:13:33.045Z,99274.13
2022-11-25T23:16:03.509Z,99268.09
2022-11-25T23:18:38.959Z,99266.50
2022-11-25T23:21:07.244Z,99275.59
2022-11-25T23:23:34.006Z,99278.19
2022-11-25T23:26:01.098Z,99270.91
2022-11-25T23:28:27.897Z,99265.72
2022-11-25T23:30:56.346Z,99272.28
2022-11-25T23:33:37.065Z,99262.25
2022-11-25T23:36:09.225Z,99269.59
2022-11-25T23:38:38.574Z,99268.63
2022-11-25T23:41:05.846Z,99264.16
2022-11-25T23:43:32.570Z,99268.72
2022-11-25T23:45:59.597Z,99267.16
2022-11-25T23:48:28.303Z,99273.50
2022-11-25T23:50:55.542Z,99278.09
2022-11-25T23:53:28.569Z,99273.69
2022-11-25T23:55:55.673Z,99273.69
2022-11-25T23:58:23.340Z,99276.53
